Time;durP1;ratioP1;P1;durP2;ratioP2;P2;SDS_P1;SDS_P2;PMS_P1;PMS_P2;Temp;Humidity;BMP_temperature;BMP_pressure;BME280_temperature;BME280_humidity;BME280_pressure;Samples;Min_cycle;Max_cycle;Signal;HPM_P1;HPM_P2
2023/01/10 00:01:29;;;;;;;3.40;1.20;;;;;;;;;;5033352;28;20208;-58
2023/01/10 00:03:56;;;;;;;1.17;0.90;;;;;;;;;;5027157;28;20201;-58
2023/01/10 00:06:23;;;;;;;2.13;1.07;;;;;;;;;;5031670;28;20212;-57
2023/01/10 00:08:51;;;;;;;2.60;0.77;;;;;;;;;;5032756;28;20210;-59
2023/01/10 00:14:04;;;;;;;5.20;0.97;;;;;;;;;;5028548;28;20199;-58
2023/01/10 00:16:31;;;;;;;1.70;0.93;;;;;;;;;;5030591;28;20196;-58
2023/01/10 00:18:58;;;;;;;1.43;0.90;;;;;;;;;;5025364;28;20196;-59
2023/01/10 00:21:27;;;;;;;1.17;0.70;;;;;;;;;;5030279;28;20216;-59
2023/01/10 00:23:54;;;;;;;1.10;1.00;;;;;;;;;;5026971;28;20211;-59
2023/01/10 00:26:21;;;;;;;1.23;0.80;;;;;;;;;;5030334;28;20238;-58
2023/01/10 00:28:48;;;;;;;2.50;1.10;;;;;;;;;;5034080;28;20200;-59
2023/01/10 00:31:17;;;;;;;1.07;0.97;;;;;;;;;;5031320;28;20208;-58
2023/01/10 00:33:45;;;;;;;0.97;0.90;;;;;;;;;;5032441;28;20204;-59
2023/01/10 00:36:12;;;;;;;1.67;1.00;;;;;;;;;;5032688;28;20230;-58
2023/01/10 00:38:39;;;;;;;1.10;0.90;;;;;;;;;;5031312;28;20196;-59
2023/01/10 00:43:55;;;;;;;2.13;1.00;;;;;;;;;;5029381;28;20200;-58
2023/01/10 00:43:56;;;;;;;1.40;1.00;;;;;;;;;;5029391;28;20224;-60
2023/01/10 00:46:24;;;;;;;2.03;1.10;;;;;;;;;;5028237;28;20224;-59
2023/01/10 00:48:52;;;;;;;3.03;1.30;;;;;;;;;;5029421;28;20207;-59
2023/01/10 00:51:20;;;;;;;2.03;1.10;;;;;;;;;;5027538;28;20204;-58
2023/01/10 00:53:47;;;;;;;1.13;0.97;;;;;;;;;;5028512;28;20215;-59
2023/01/10 00:56:14;;;;;;;3.67;1.30;;;;;;;;;;5030644;28;20200;-58
2023/01/10 00:58:41;;;;;;;2.60;1.30;;;;;;;;;;5023856;28;20595;-58
2023/01/10 01:01:09;;;;;;;2.87;1.10;;;;;;;;;;5027292;28;20196;-58
2023/01/10 01:03:37;;;;;;;2.03;1.10;;;;;;;;;;5026122;28;20207;-60
2023/01/10 01:06:04;;;;;;;4.80;1.63;;;;;;;;;;5030128;28;20231;-59
2023/01/10 01:08:32;;;;;;;3.27;1.47;;;;;;;;;;5028181;28;20204;-58
2023/01/10 01:10:59;;;;;;;1.73;1.20;;;;;;;;;;5027373;28;20242;-58
2023/01/10 01:13:26;;;;;;;2.60;1.27;;;;;;;;;;5029788;28;20239;-59
2023/01/10 01:15:53;;;;;;;3.80;1.60;;;;;;;;;;5023672;28;20201;-58
2023/01/10 01:18:21;;;;;;;6.53;1.83;;;;;;;;;;5023809;28;20200;-59
2023/01/10 01:20:53;;;;;;;2.57;1.40;;;;;;;;;;5028205;28;20200;-58
2023/01/10 01:23:20;;;;;;;2.50;1.60;;;;;;;;;;5023703;28;20212;-59
2023/01/10 01:25:50;;;;;;;2.70;1.53;;;;;;;;;;5029927;28;20231;-58
2023/01/10 01:28:17;;;;;;;6.67;1.70;;;;;;;;;;5029915;28;20204;-59
2023/01/10 01:30:44;;;;;;;5.10;1.60;;;;;;;;;;5032683;28;20192;-60
2023/01/10 01:33:12;;;;;;;8.60;2.20;;;;;;;;;;5029479;28;20294;-59
2023/01/10 01:35:42;;;;;;;8.40;2.27;;;;;;;;;;5028716;28;20205;-59
2023/01/10 01:38:10;;;;;;;9.80;2.13;;;;;;;;;;5029870;28;20200;-59
2023/01/10 01:40:38;;;;;;;7.93;2.47;;;;;;;;;;5028837;28;20204;-58
2023/01/10 01:43:05;;;;;;;6.57;2.17;;;;;;;;;;5024480;28;20205;-59
2023/01/10 01:45:41;;;;;;;4.63;1.87;;;;;;;;;;5024920;28;20208;-58
2023/01/10 01:48:23;;;;;;;6.60;2.23;;;;;;;;;;5029398;28;20199;-59
2023/01/10 01:50:52;;;;;;;4.63;2.00;;;;;;;;;;5024156;28;20200;-58
2023/01/10 01:53:26;;;;;;;10.83;2.43;;;;;;;;;;5029832;28;20218;-59
2023/01/10 01:55:54;;;;;;;10.30;2.10;;;;;;;;;;5027394;28;20196;-58
2023/01/10 01:58:25;;;;;;;6.23;2.00;;;;;;;;;;5026862;28;20200;-57
2023/01/10 02:00:52;;;;;;;7.73;2.23;;;;;;;;;;5027629;28;20212;-58
2023/01/10 02:03:19;;;;;;;6.13;2.20;;;;;;;;;;5026224;28;20212;-60
2023/01/10 02:05:47;;;;;;;7.90;2.30;;;;;;;;;;5026894;28;20239;-59
2023/01/10 02:08:14;;;;;;;7.77;2.40;;;;;;;;;;5026938;28;20200;-59
2023/01/10 02:10:47;;;;;;;8.43;2.53;;;;;;;;;;5024282;28;20203;-58
2023/01/10 02:13:15;;;;;;;6.60;2.50;;;;;;;;;;5026881;28;20234;-58
2023/01/10 02:15:42;;;;;;;8.87;2.43;;;;;;;;;;5025013;28;20193;-58
2023/01/10 02:18:10;;;;;;;9.33;2.70;;;;;;;;;;5029986;28;20204;-59
2023/01/10 02:20:39;;;;;;;9.03;2.70;;;;;;;;;;5028349;28;20320;-59
2023/01/10 02:23:21;;;;;;;6.97;2.60;;;;;;;;;;5028299;28;20204;-59
2023/01/10 02:26:00;;;;;;;10.60;2.53;;;;;;;;;;5025977;28;20216;-59
2023/01/10 02:28:48;;;;;;;6.43;2.13;;;;;;;;;;5026761;28;20200;-59
2023/01/10 02:31:31;;;;;;;9.77;2.80;;;;;;;;;;5025193;28;20443;-58
2023/01/10 02:34:05;;;;;;;12.13;2.40;;;;;;;;;;5029320;28;20206;-57
2023/01/10 02:36:37;;;;;;;8.60;2.43;;;;;;;;;;5024718;28;20211;-58
2023/01/10 02:39:09;;;;;;;7.27;2.60;;;;;;;;;;5024868;28;20210;-58
2023/01/10 02:41:39;;;;;;;10.37;2.50;;;;;;;;;;5027673;28;20216;-59
2023/01/10 02:44:08;;;;;;;9.87;2.70;;;;;;;;;;5025216;28;20200;-58
2023/01/10 02:46:36;;;;;;;12.90;3.00;;;;;;;;;;5026887;28;20212;-60
2023/01/10 02:49:04;;;;;;;13.80;3.00;;;;;;;;;;5024523;28;20204;-58
2023/01/10 02:51:33;;;;;;;9.77;2.53;;;;;;;;;;5024300;28;20215;-59
2023/01/10 02:54:02;;;;;;;8.43;2.20;;;;;;;;;;5025011;28;20207;-58
2023/01/10 02:56:39;;;;;;;8.27;2.40;;;;;;;;;;5027855;28;20307;-58
2023/01/10 02:59:15;;;;;;;11.27;3.07;;;;;;;;;;5027865;28;20192;-59
2023/01/10 03:01:45;;;;;;;9.03;2.83;;;;;;;;;;5024629;28;20204;-58
2023/01/10 03:04:19;;;;;;;10.20;2.60;;;;;;;;;;5024569;28;20203;-56
2023/01/10 03:06:49;;;;;;;12.47;2.50;;;;;;;;;;5026881;28;20235;-58
2023/01/10 03:09:20;;;;;;;9.07;2.40;;;;;;;;;;5025394;28;20208;-56
2023/01/10 03:11:48;;;;;;;8.97;2.60;;;;;;;;;;5023811;28;20212;-57
2023/01/10 03:14:18;;;;;;;16.90;3.20;;;;;;;;;;5026191;28;20196;-58
2023/01/10 03:16:48;;;;;;;8.73;2.30;;;;;;;;;;5023505;28;20207;-57
2023/01/10 03:19:18;;;;;;;10.77;2.40;;;;;;;;;;5028715;28;20257;-57
2023/01/10 03:21:45;;;;;;;10.10;2.40;;;;;;;;;;5029673;28;20205;-57
2023/01/10 03:24:17;;;;;;;11.33;2.80;;;;;;;;;;5024151;28;20196;-59
2023/01/10 03:26:46;;;;;;;10.37;2.97;;;;;;;;;;5022268;28;20232;-58
2023/01/10 03:29:16;;;;;;;9.87;2.33;;;;;;;;;;5026696;28;20200;-58
2023/01/10 03:31:46;;;;;;;10.60;2.70;;;;;;;;;;5023449;28;21599;-57
2023/01/10 03:34:13;;;;;;;12.23;2.90;;;;;;;;;;5026056;28;20200;-57
2023/01/10 03:36:47;;;;;;;10.73;2.57;;;;;;;;;;5027160;28;20821;-57
2023/01/10 03:39:19;;;;;;;14.57;2.70;;;;;;;;;;5015728;28;20200;-57
2023/01/10 03:41:49;;;;;;;14.07;3.00;;;;;;;;;;5022920;28;20220;-59
2023/01/10 03:47:05;;;;;;;12.17;2.73;;;;;;;;;;5026610;28;20308;-57
2023/01/10 03:49:34;;;;;;;16.13;3.23;;;;;;;;;;5026149;28;20215;-57
2023/01/10 03:52:03;;;;;;;15.90;2.97;;;;;;;;;;5027196;28;20301;-57
2023/01/10 03:54:30;;;;;;;13.53;2.73;;;;;;;;;;5025065;28;20208;-59
2023/01/10 03:56:58;;;;;;;12.47;3.07;;;;;;;;;;5023616;28;20192;-57
2023/01/10 03:59:26;;;;;;;13.70;3.00;;;;;;;;;;5026937;28;20204;-58
2023/01/10 04:01:53;;;;;;;15.53;3.10;;;;;;;;;;5025167;28;20212;-56
2023/01/10 04:04:20;;;;;;;15.53;3.10;;;;;;;;;;5025255;28;20208;-57
2023/01/10 04:06:47;;;;;;;14.67;3.40;;;;;;;;;;5024867;28;20216;-57
2023/01/10 04:09:16;;;;;;;17.10;3.80;;;;;;;;;;5023750;28;20215;-58
2023/01/10 04:11:43;;;;;;;12.10;3.10;;;;;;;;;;5025383;28;20205;-58
2023/01/10 04:14:10;;;;;;;14.23;3.43;;;;;;;;;;5025641;28;20205;-58
2023/01/10 04:16:37;;;;;;;10.33;2.60;;;;;;;;;;5023313;28;20204;-57
2023/01/10 04:19:04;;;;;;;11.93;3.07;;;;;;;;;;5023913;28;20200;-57
2023/01/10 04:21:31;;;;;;;10.73;3.23;;;;;;;;;;5021903;28;20219;-57
2023/01/10 04:23:58;;;;;;;16.60;3.00;;;;;;;;;;5028957;28;20200;-58
2023/01/10 04:26:27;;;;;;;12.77;2.77;;;;;;;;;;5031605;28;20240;-57
2023/01/10 04:28:54;;;;;;;15.43;3.37;;;;;;;;;;5032990;28;20203;-57
2023/01/10 04:31:22;;;;;;;18.27;3.00;;;;;;;;;;5029809;28;20470;-57
2023/01/10 04:33:49;;;;;;;15.60;3.30;;;;;;;;;;5026706;28;20206;-58
2023/01/10 04:36:16;;;;;;;13.47;3.20;;;;;;;;;;5027496;28;20207;-58
2023/01/10 04:38:43;;;;;;;13.80;3.03;;;;;;;;;;5028795;28;20212;-58
2023/01/10 04:41:10;;;;;;;10.37;2.87;;;;;;;;;;5030146;28;20200;-57
2023/01/10 04:43:39;;;;;;;14.63;2.97;;;;;;;;;;5024578;28;20205;-58
2023/01/10 04:46:06;;;;;;;12.57;3.20;;;;;;;;;;5022073;28;20216;-57
2023/01/10 04:48:33;;;;;;;13.07;3.40;;;;;;;;;;5023020;28;20232;-58
2023/01/10 04:51:00;;;;;;;17.80;4.03;;;;;;;;;;5023016;28;20220;-59
2023/01/10 04:53:27;;;;;;;14.60;3.30;;;;;;;;;;5025092;28;20472;-58
2023/01/10 04:55:54;;;;;;;13.83;3.03;;;;;;;;;;5026169;28;20205;-58
2023/01/10 04:58:22;;;;;;;13.07;2.83;;;;;;;;;;5021762;28;20212;-59
2023/01/10 05:00:51;;;;;;;11.60;3.07;;;;;;;;;;5024723;28;20211;-57
2023/01/10 05:03:20;;;;;;;10.07;2.70;;;;;;;;;;5019702;28;20215;-59
2023/01/10 05:05:47;;;;;;;12.67;2.80;;;;;;;;;;5022867;28;20295;-58
2023/01/10 05:08:15;;;;;;;15.40;3.00;;;;;;;;;;5026437;28;20212;-58
2023/01/10 05:10:42;;;;;;;14.00;2.97;;;;;;;;;;5029631;28;20215;-58
2023/01/10 05:13:09;;;;;;;12.40;2.80;;;;;;;;;;5030845;28;20207;-58
2023/01/10 05:15:36;;;;;;;12.53;2.50;;;;;;;;;;5029586;28;20207;-57
2023/01/10 05:18:04;;;;;;;13.57;2.93;;;;;;;;;;5026920;28;20200;-58
2023/01/10 05:20:32;;;;;;;12.50;3.17;;;;;;;;;;5025808;28;20214;-59
2023/01/10 05:22:59;;;;;;;14.97;2.87;;;;;;;;;;5027999;28;20200;-57
2023/01/10 05:25:26;;;;;;;14.00;3.60;;;;;;;;;;5022107;28;20223;-58
2023/01/10 05:27:54;;;;;;;10.70;3.57;;;;;;;;;;5028156;28;20254;-57
2023/01/10 05:30:21;;;;;;;14.77;3.30;;;;;;;;;;5028838;28;20227;-57
2023/01/10 05:32:48;;;;;;;14.03;3.37;;;;;;;;;;5025254;28;20215;-58
2023/01/10 05:35:17;;;;;;;14.23;3.67;;;;;;;;;;5026097;28;20232;-57
2023/01/10 05:37:44;;;;;;;14.33;3.70;;;;;;;;;;5028295;28;20204;-58
2023/01/10 05:40:12;;;;;;;18.10;3.70;;;;;;;;;;5030079;28;20211;-57
2023/01/10 05:42:39;;;;;;;11.63;3.17;;;;;;;;;;5024797;28;20201;-58
2023/01/10 05:45:06;;;;;;;10.87;2.70;;;;;;;;;;5026782;28;20197;-57
2023/01/10 05:47:33;;;;;;;13.60;3.33;;;;;;;;;;5026319;28;20232;-57
2023/01/10 05:50:01;;;;;;;15.97;3.60;;;;;;;;;;5026731;28;20197;-58
2023/01/10 05:52:29;;;;;;;13.30;3.70;;;;;;;;;;5024489;28;20219;-57
2023/01/10 05:54:56;;;;;;;15.13;3.50;;;;;;;;;;5027187;28;20207;-57
2023/01/10 05:57:24;;;;;;;14.33;3.10;;;;;;;;;;5028944;28;20208;-58
2023/01/10 05:59:51;;;;;;;14.90;3.20;;;;;;;;;;5025196;28;20227;-57
2023/01/10 06:02:18;;;;;;;10.47;2.90;;;;;;;;;;5026136;28;20215;-58
2023/01/10 06:04:45;;;;;;;14.23;3.00;;;;;;;;;;5028899;28;20205;-56
2023/01/10 06:07:12;;;;;;;13.40;3.00;;;;;;;;;;5028435;28;20227;-58
2023/01/10 06:09:41;;;;;;;16.63;2.70;;;;;;;;;;5025810;28;20199;-56
2023/01/10 06:12:08;;;;;;;11.87;3.07;;;;;;;;;;5027214;28;20314;-57
2023/01/10 06:14:35;;;;;;;14.63;2.60;;;;;;;;;;5030364;28;20205;-57
2023/01/10 06:17:07;;;;;;;12.27;2.60;;;;;;;;;;5024646;28;20204;-57
2023/01/10 06:19:34;;;;;;;13.60;3.00;;;;;;;;;;5024026;28;20208;-56
2023/01/10 06:22:01;;;;;;;10.83;2.90;;;;;;;;;;5029381;28;20204;-56
2023/01/10 06:24:28;;;;;;;12.07;2.87;;;;;;;;;;5027164;28;20780;-57
2023/01/10 06:26:57;;;;;;;14.20;3.00;;;;;;;;;;5026542;28;20231;-55
2023/01/10 06:29:24;;;;;;;13.43;2.70;;;;;;;;;;5027832;28;20201;-57
2023/01/10 06:31:51;;;;;;;11.60;2.90;;;;;;;;;;5025187;28;20204;-57
2023/01/10 06:34:18;;;;;;;13.40;2.80;;;;;;;;;;5026074;28;20208;-57
2023/01/10 06:36:45;;;;;;;18.00;3.40;;;;;;;;;;5019940;28;20196;-57
2023/01/10 06:39:12;;;;;;;10.53;2.83;;;;;;;;;;5022783;28;20208;-58
2023/01/10 06:41:39;;;;;;;14.63;3.60;;;;;;;;;;5030215;28;20205;-57
2023/01/10 06:44:08;;;;;;;13.40;2.67;;;;;;;;;;5026779;28;20211;-57
2023/01/10 06:46:35;;;;;;;14.80;2.97;;;;;;;;;;5026007;28;20220;-58
2023/01/10 06:49:02;;;;;;;10.43;3.43;;;;;;;;;;5032058;28;20211;-56
2023/01/10 06:51:29;;;;;;;13.97;3.20;;;;;;;;;;5028047;28;20212;-58
2023/01/10 06:53:57;;;;;;;15.30;3.67;;;;;;;;;;5031574;28;20219;-57
2023/01/10 06:56:24;;;;;;;12.47;3.17;;;;;;;;;;5031059;28;20207;-56
2023/01/10 06:58:51;;;;;;;18.87;3.90;;;;;;;;;;5027125;28;20227;-57
2023/01/10 07:01:21;;;;;;;14.83;3.50;;;;;;;;;;5029647;28;20298;-57
2023/01/10 07:03:48;;;;;;;11.33;3.50;;;;;;;;;;5030650;28;20240;-56
2023/01/10 07:06:16;;;;;;;11.30;3.13;;;;;;;;;;5028627;28;20204;-57
2023/01/10 07:08:43;;;;;;;14.17;3.20;;;;;;;;;;5024633;28;20208;-58
2023/01/10 07:11:11;;;;;;;16.03;3.33;;;;;;;;;;5022087;28;20211;-58
2023/01/10 07:13:39;;;;;;;10.50;3.30;;;;;;;;;;5026089;28;20192;-57
2023/01/10 07:16:07;;;;;;;17.53;3.60;;;;;;;;;;5028191;28;20204;-57
2023/01/10 07:18:36;;;;;;;12.43;3.17;;;;;;;;;;5028766;28;20196;-57
2023/01/10 07:21:04;;;;;;;15.37;3.93;;;;;;;;;;5031595;28;20215;-57
2023/01/10 07:23:31;;;;;;;12.40;3.40;;;;;;;;;;5025185;28;20200;-57
2023/01/10 07:25:58;;;;;;;15.47;4.07;;;;;;;;;;5023590;28;20208;-57
2023/01/10 07:28:25;;;;;;;19.47;3.90;;;;;;;;;;5025828;28;20222;-58
2023/01/10 07:30:52;;;;;;;15.97;4.30;;;;;;;;;;5026132;28;20204;-58
2023/01/10 07:33:19;;;;;;;14.20;3.80;;;;;;;;;;5024808;28;20219;-57
2023/01/10 07:35:48;;;;;;;19.20;3.80;;;;;;;;;;5019570;28;20204;-57
2023/01/10 07:38:15;;;;;;;15.03;3.57;;;;;;;;;;5022049;28;20205;-57
2023/01/10 07:40:43;;;;;;;15.00;4.03;;;;;;;;;;5017233;28;20208;-57
2023/01/10 07:43:10;;;;;;;14.40;4.00;;;;;;;;;;5025398;28;20204;-58
2023/01/10 07:45:37;;;;;;;16.23;3.83;;;;;;;;;;5028101;28;20220;-56
2023/01/10 07:48:05;;;;;;;14.77;3.80;;;;;;;;;;5025973;28;20224;-58
2023/01/10 07:50:34;;;;;;;17.83;4.57;;;;;;;;;;5019819;28;20204;-56
2023/01/10 07:53:04;;;;;;;17.00;4.17;;;;;;;;;;5022189;28;20212;-56
2023/01/10 07:55:33;;;;;;;15.77;4.13;;;;;;;;;;5024325;28;20208;-57
2023/01/10 07:58:00;;;;;;;12.50;3.90;;;;;;;;;;5026740;28;20219;-58
2023/01/10 08:00:28;;;;;;;17.83;4.43;;;;;;;;;;5028797;28;20204;-57
2023/01/10 08:02:55;;;;;;;12.17;4.30;;;;;;;;;;5031612;28;20222;-58
2023/01/10 08:05:22;;;;;;;15.93;5.27;;;;;;;;;;5032237;28;20218;-57
2023/01/10 08:07:49;;;;;;;14.13;4.20;;;;;;;;;;5032654;28;20212;-57
2023/01/10 08:10:18;;;;;;;11.77;3.90;;;;;;;;;;5033785;28;20211;-56
2023/01/10 08:12:47;;;;;;;13.47;4.00;;;;;;;;;;5029048;28;20204;-57
2023/01/10 08:15:14;;;;;;;17.53;4.80;;;;;;;;;;5027038;28;20220;-58
2023/01/10 08:17:41;;;;;;;14.07;4.60;;;;;;;;;;5030966;28;20200;-57
2023/01/10 08:20:09;;;;;;;12.90;4.60;;;;;;;;;;5022299;28;20216;-57
2023/01/10 08:22:37;;;;;;;18.30;4.93;;;;;;;;;;5027976;28;20201;-58
2023/01/10 08:25:04;;;;;;;17.90;5.30;;;;;;;;;;5028968;28;20212;-57
2023/01/10 08:27:32;;;;;;;16.93;4.53;;;;;;;;;;5031961;28;20232;-57
2023/01/10 08:29:59;;;;;;;21.37;4.73;;;;;;;;;;5032580;28;20208;-56
2023/01/10 08:32:27;;;;;;;17.40;4.60;;;;;;;;;;5027385;28;20211;-58
2023/01/10 08:34:54;;;;;;;16.83;4.90;;;;;;;;;;5024046;28;20223;-57
2023/01/10 08:37:21;;;;;;;13.57;4.37;;;;;;;;;;5026371;28;20207;-58
2023/01/10 08:39:48;;;;;;;18.97;5.20;;;;;;;;;;5024017;28;20200;-58
2023/01/10 08:42:17;;;;;;;15.90;4.30;;;;;;;;;;5027616;28;20212;-58
2023/01/10 08:44:46;;;;;;;17.70;5.00;;;;;;;;;;5025605;28;20205;-57
2023/01/10 08:47:13;;;;;;;12.87;4.80;;;;;;;;;;5029067;28;20296;-58
2023/01/10 08:49:41;;;;;;;18.60;4.90;;;;;;;;;;5029841;28;20200;-57
2023/01/10 08:52:08;;;;;;;20.33;4.90;;;;;;;;;;5026505;28;20223;-58
2023/01/10 08:54:35;;;;;;;17.83;5.07;;;;;;;;;;5028482;28;20250;-58
2023/01/10 08:57:02;;;;;;;16.67;5.50;;;;;;;;;;5030593;28;20200;-59
2023/01/10 08:59:29;;;;;;;18.57;6.00;;;;;;;;;;5031084;28;20210;-57
2023/01/10 09:01:58;;;;;;;16.97;5.83;;;;;;;;;;5031234;28;20206;-57
2023/01/10 09:04:27;;;;;;;19.93;5.63;;;;;;;;;;5027157;28;20227;-57
2023/01/10 09:06:54;;;;;;;17.63;5.97;;;;;;;;;;5025920;28;20282;-57
2023/01/10 09:09:22;;;;;;;25.27;5.97;;;;;;;;;;5025423;28;20197;-57
2023/01/10 09:11:49;;;;;;;21.93;5.87;;;;;;;;;;5028694;28;20215;-57
2023/01/10 09:14:16;;;;;;;22.73;5.53;;;;;;;;;;5024650;28;20204;-57
2023/01/10 09:16:43;;;;;;;17.50;5.33;;;;;;;;;;5031542;28;20204;-57
2023/01/10 09:19:12;;;;;;;14.97;5.17;;;;;;;;;;5032890;28;20197;-57
2023/01/10 09:21:39;;;;;;;15.67;4.70;;;;;;;;;;5029836;28;20226;-56
2023/01/10 09:24:07;;;;;;;19.60;5.30;;;;;;;;;;5025128;28;20200;-58
2023/01/10 09:26:34;;;;;;;16.23;5.17;;;;;;;;;;5033176;28;20227;-57
2023/01/10 09:29:01;;;;;;;22.50;5.97;;;;;;;;;;5033337;28;20235;-57
2023/01/10 09:31:28;;;;;;;20.50;4.83;;;;;;;;;;5033790;28;20208;-55
2023/01/10 09:33:55;;;;;;;12.63;4.90;;;;;;;;;;5032952;28;20207;-56
2023/01/10 09:36:24;;;;;;;20.60;4.70;;;;;;;;;;5033080;28;20212;-57
2023/01/10 09:38:51;;;;;;;15.13;4.70;;;;;;;;;;5033440;28;20208;-56
2023/01/10 09:41:25;;;;;;;16.20;5.00;;;;;;;;;;5027236;28;20209;-58
2023/01/10 09:44:00;;;;;;;16.23;4.57;;;;;;;;;;5030449;28;20207;-57
2023/01/10 09:46:33;;;;;;;16.80;4.90;;;;;;;;;;5033054;28;20200;-58
2023/01/10 09:49:03;;;;;;;17.77;4.17;;;;;;;;;;5040377;28;20243;-56
2023/01/10 09:51:36;;;;;;;17.40;4.57;;;;;;;;;;5030375;28;20234;-57
2023/01/10 09:54:05;;;;;;;13.23;4.27;;;;;;;;;;5027627;28;20208;-58
2023/01/10 09:56:33;;;;;;;20.30;4.90;;;;;;;;;;5032635;28;20216;-57
2023/01/10 09:59:02;;;;;;;18.93;4.87;;;;;;;;;;5029081;28;20308;-58
2023/01/10 10:01:30;;;;;;;17.00;4.70;;;;;;;;;;5030435;28;20212;-56
2023/01/10 10:04:01;;;;;;;15.23;3.70;;;;;;;;;;5031710;28;20211;-57
2023/01/10 10:06:28;;;;;;;20.17;4.40;;;;;;;;;;5028293;28;20207;-57
2023/01/10 10:08:57;;;;;;;13.93;4.30;;;;;;;;;;5032110;28;20216;-57
2023/01/10 10:11:48;;;;;;;16.73;4.10;;;;;;;;;;5029824;28;20203;-57
2023/01/10 10:14:21;;;;;;;14.47;4.83;;;;;;;;;;5011106;28;20205;-57
2023/01/10 10:16:55;;;;;;;21.23;4.17;;;;;;;;;;5029147;28;20208;-57
2023/01/10 10:19:24;;;;;;;19.40;4.57;;;;;;;;;;5030614;28;20235;-58
2023/01/10 10:22:00;;;;;;;19.13;4.60;;;;;;;;;;5031551;28;20215;-58
2023/01/10 10:24:43;;;;;;;10.77;3.83;;;;;;;;;;5027534;28;20203;-57
2023/01/10 10:27:15;;;;;;;19.10;4.10;;;;;;;;;;5028646;28;20236;-57
2023/01/10 10:29:55;;;;;;;10.80;3.43;;;;;;;;;;5032163;28;20220;-56
2023/01/10 10:32:27;;;;;;;12.57;3.57;;;;;;;;;;5026470;28;20207;-57
2023/01/10 10:34:55;;;;;;;13.30;3.57;;;;;;;;;;5029353;28;20234;-57
2023/01/10 10:37:31;;;;;;;13.77;3.97;;;;;;;;;;5032390;28;20207;-57
2023/01/10 10:40:00;;;;;;;16.23;4.07;;;;;;;;;;5029733;28;20242;-55
2023/01/10 10:42:30;;;;;;;12.53;3.27;;;;;;;;;;5031527;28;20204;-56
2023/01/10 10:45:00;;;;;;;16.07;3.73;;;;;;;;;;5029752;28;20239;-56
2023/01/10 10:47:28;;;;;;;17.67;3.57;;;;;;;;;;5031331;28;20234;-57
2023/01/10 10:49:59;;;;;;;13.80;3.60;;;;;;;;;;5031315;28;20219;-57
2023/01/10 10:52:27;;;;;;;13.63;3.50;;;;;;;;;;5031725;28;20208;-57
2023/01/10 10:54:54;;;;;;;16.17;3.50;;;;;;;;;;5031508;28;20208;-56
2023/01/10 10:57:26;;;;;;;11.83;3.17;;;;;;;;;;5031337;28;20200;-56
2023/01/10 10:59:53;;;;;;;14.87;3.23;;;;;;;;;;5032072;28;20216;-56
2023/01/10 11:02:22;;;;;;;13.23;3.60;;;;;;;;;;5027893;28;20215;-57
2023/01/10 11:04:50;;;;;;;13.30;3.90;;;;;;;;;;5026043;28;20200;-57
2023/01/10 11:07:18;;;;;;;14.87;3.30;;;;;;;;;;5029198;28;20211;-56
2023/01/10 11:09:45;;;;;;;16.03;3.93;;;;;;;;;;5031343;28;20242;-57
2023/01/10 11:12:14;;;;;;;15.20;3.97;;;;;;;;;;5029583;28;20204;-55
2023/01/10 11:14:44;;;;;;;19.73;4.83;;;;;;;;;;5030740;28;20231;-57
2023/01/10 11:17:22;;;;;;;13.73;4.40;;;;;;;;;;5028112;28;20200;-57
2023/01/10 11:19:56;;;;;;;22.03;4.53;;;;;;;;;;5027971;28;20196;-58
2023/01/10 11:22:24;;;;;;;14.50;3.40;;;;;;;;;;5025965;28;20212;-57
2023/01/10 11:24:55;;;;;;;11.47;3.53;;;;;;;;;;5027421;28;20209;-58
2023/01/10 11:27:23;;;;;;;14.27;3.30;;;;;;;;;;5029793;28;20242;-56
2023/01/10 11:29:53;;;;;;;21.80;7.17;;;;;;;;;;5031079;28;20220;-57
2023/01/10 11:32:23;;;;;;;18.40;5.43;;;;;;;;;;5034156;28;20211;-56
2023/01/10 11:34:53;;;;;;;18.23;4.57;;;;;;;;;;5037696;28;20203;-57
2023/01/10 11:37:23;;;;;;;16.93;4.73;;;;;;;;;;5037663;28;20208;-56
2023/01/10 11:39:50;;;;;;;12.73;3.60;;;;;;;;;;5035494;28;20208;-57
2023/01/10 11:42:28;;;;;;;14.87;5.00;;;;;;;;;;5035599;28;20212;-56
2023/01/10 11:44:57;;;;;;;16.50;4.10;;;;;;;;;;5029885;28;20227;-57
2023/01/10 11:47:24;;;;;;;15.53;4.37;;;;;;;;;;5029535;28;20211;-57
2023/01/10 11:49:51;;;;;;;18.10;5.30;;;;;;;;;;5033279;28;20223;-58
2023/01/10 11:52:20;;;;;;;17.97;4.57;;;;;;;;;;5029821;28;20212;-57
2023/01/10 11:54:48;;;;;;;15.33;4.47;;;;;;;;;;5032157;28;20203;-56
2023/01/10 11:57:16;;;;;;;13.97;3.47;;;;;;;;;;5027685;28;20205;-57
2023/01/10 11:59:51;;;;;;;19.57;3.63;;;;;;;;;;5035660;28;20202;-57
2023/01/10 12:02:22;;;;;;;15.30;3.77;;;;;;;;;;5031973;28;20203;-57
2023/01/10 12:04:50;;;;;;;19.43;4.13;;;;;;;;;;5027598;28;20451;-58
2023/01/10 12:07:18;;;;;;;13.93;3.90;;;;;;;;;;5031719;28;20210;-55
2023/01/10 12:09:54;;;;;;;13.80;3.53;;;;;;;;;;5023984;28;20223;-56
2023/01/10 12:12:23;;;;;;;17.07;3.90;;;;;;;;;;5024179;28;20211;-58
2023/01/10 12:14:50;;;;;;;17.60;4.50;;;;;;;;;;5033332;28;20204;-56
2023/01/10 12:17:22;;;;;;;17.30;4.03;;;;;;;;;;5032873;28;20211;-57
2023/01/10 12:19:51;;;;;;;15.73;4.20;;;;;;;;;;5031282;28;20204;-58
2023/01/10 12:22:21;;;;;;;15.53;3.37;;;;;;;;;;5033614;28;20302;-57
2023/01/10 12:24:48;;;;;;;12.37;4.87;;;;;;;;;;5030261;28;20204;-57
2023/01/10 12:27:17;;;;;;;14.80;3.67;;;;;;;;;;5033070;28;20247;-57
2023/01/10 12:29:47;;;;;;;23.70;5.07;;;;;;;;;;5033631;28;20311;-58
2023/01/10 12:32:17;;;;;;;15.40;4.20;;;;;;;;;;5031066;28;20214;-58
2023/01/10 12:34:48;;;;;;;16.03;3.87;;;;;;;;;;5032220;28;20207;-56
2023/01/10 12:37:19;;;;;;;16.40;3.90;;;;;;;;;;5033057;28;20227;-55
2023/01/10 12:39:49;;;;;;;12.20;4.50;;;;;;;;;;5033095;28;20196;-57
2023/01/10 12:45:07;;;;;;;19.00;3.67;;;;;;;;;;5025457;28;20203;-58
2023/01/10 12:47:35;;;;;;;14.33;3.70;;;;;;;;;;5028491;28;20208;-57
2023/01/10 12:50:06;;;;;;;17.60;4.10;;;;;;;;;;5031418;28;20220;-57
2023/01/10 12:52:41;;;;;;;16.37;3.80;;;;;;;;;;5035622;28;20200;-57
2023/01/10 12:55:12;;;;;;;15.20;4.20;;;;;;;;;;5026045;28;20204;-58
2023/01/10 12:57:40;;;;;;;22.27;3.93;;;;;;;;;;5027282;28;20196;-58
2023/01/10 13:00:08;;;;;;;13.87;3.90;;;;;;;;;;5032735;28;20207;-55
2023/01/10 13:02:40;;;;;;;13.33;3.63;;;;;;;;;;5024885;28;20204;-57
2023/01/10 13:05:15;;;;;;;12.40;3.63;;;;;;;;;;5024823;28;20212;-56
2023/01/10 13:07:42;;;;;;;16.20;3.73;;;;;;;;;;5030534;28;20193;-58
2023/01/10 13:10:15;;;;;;;17.93;3.60;;;;;;;;;;5027659;28;20224;-57
2023/01/10 13:12:44;;;;;;;15.33;3.77;;;;;;;;;;5026897;28;20201;-57
2023/01/10 13:15:16;;;;;;;21.17;3.50;;;;;;;;;;5027268;28;20208;-57
2023/01/10 13:17:46;;;;;;;14.93;3.53;;;;;;;;;;5027101;28;20211;-58
2023/01/10 13:20:26;;;;;;;19.93;3.67;;;;;;;;;;5028485;28;20208;-57
2023/01/10 13:22:54;;;;;;;12.77;3.50;;;;;;;;;;5027386;28;20211;-56
2023/01/10 13:25:24;;;;;;;18.37;3.63;;;;;;;;;;5030946;28;20284;-55
2023/01/10 13:27:56;;;;;;;16.17;4.07;;;;;;;;;;5025733;28;20238;-56
2023/01/10 13:30:27;;;;;;;15.67;3.77;;;;;;;;;;5027368;28;20224;-55
2023/01/10 13:32:57;;;;;;;17.03;3.57;;;;;;;;;;5021689;28;20207;-56
2023/01/10 13:35:27;;;;;;;13.30;3.53;;;;;;;;;;5032832;28;20200;-56
2023/01/10 13:37:56;;;;;;;18.17;3.60;;;;;;;;;;5033667;28;20239;-57
2023/01/10 13:40:27;;;;;;;16.00;3.57;;;;;;;;;;5026188;28;20200;-57
2023/01/10 13:43:19;;;;;;;15.43;3.70;;;;;;;;;;5030034;28;20211;-58
2023/01/10 13:45:46;;;;;;;12.53;2.97;;;;;;;;;;4943984;28;20231;-56
2023/01/10 13:48:27;;;;;;;15.00;3.43;;;;;;;;;;5033400;28;20208;-56
2023/01/10 13:51:14;;;;;;;13.27;3.10;;;;;;;;;;5032800;28;20203;-57
2023/01/10 13:53:47;;;;;;;14.20;3.73;;;;;;;;;;5028730;28;20212;-56
2023/01/10 13:56:30;;;;;;;13.07;3.10;;;;;;;;;;5029766;28;20232;-57
2023/01/10 14:04:29;;;;;;;15.37;2.90;;;;;;;;;;5032401;28;20227;-56
2023/01/10 14:06:59;;;;;;;13.20;3.57;;;;;;;;;;5031923;28;20204;-57
2023/01/10 14:09:44;;;;;;;18.00;3.47;;;;;;;;;;5032838;28;20228;-57
2023/01/10 14:12:20;;;;;;;18.13;3.53;;;;;;;;;;5028543;28;20208;-57
2023/01/10 14:14:51;;;;;;;14.40;3.17;;;;;;;;;;5032084;28;20212;-56
2023/01/10 14:17:22;;;;;;;15.63;2.83;;;;;;;;;;5032841;28;20207;-56
2023/01/10 14:19:57;;;;;;;15.57;2.80;;;;;;;;;;5032581;28;20215;-58
2023/01/10 14:22:28;;;;;;;15.40;3.50;;;;;;;;;;5031767;28;20210;-56
2023/01/10 14:24:55;;;;;;;11.37;2.73;;;;;;;;;;5029253;28;20222;-56
2023/01/10 14:27:22;;;;;;;16.50;3.27;;;;;;;;;;5032435;28;20247;-60
2023/01/10 14:29:51;;;;;;;11.20;2.60;;;;;;;;;;5029071;28;20227;-56
2023/01/10 14:32:24;;;;;;;12.00;2.87;;;;;;;;;;5031676;28;20208;-58
2023/01/10 14:34:51;;;;;;;14.17;2.73;;;;;;;;;;5029269;28;20212;-57
2023/01/10 14:37:24;;;;;;;16.10;3.30;;;;;;;;;;5031894;28;20212;-57
2023/01/10 14:39:54;;;;;;;12.20;2.90;;;;;;;;;;5028911;28;20207;-57
2023/01/10 14:42:22;;;;;;;12.93;3.13;;;;;;;;;;5030078;28;20204;-58
2023/01/10 14:44:51;;;;;;;14.43;3.30;;;;;;;;;;5032135;28;20304;-56
2023/01/10 14:47:27;;;;;;;12.60;3.67;;;;;;;;;;5031619;28;20215;-57
2023/01/10 14:49:55;;;;;;;14.30;3.43;;;;;;;;;;5031289;28;20334;-56
2023/01/10 14:52:24;;;;;;;14.50;2.73;;;;;;;;;;5031569;28;20389;-57
2023/01/10 14:55:02;;;;;;;14.40;3.70;;;;;;;;;;5032011;28;20220;-57
2023/01/10 14:57:30;;;;;;;11.17;2.97;;;;;;;;;;5032179;28;20211;-57
2023/01/10 15:00:03;;;;;;;12.17;3.10;;;;;;;;;;5031549;28;20196;-57